createdAt,value
2023-03-02T00:00:47.831Z,5.80
2023-03-02T00:03:15.746Z,5.03
2023-03-02T00:05:42.335Z,5.25
2023-03-02T00:08:09.474Z,4.90
2023-03-02T00:10:37.601Z,5.35
2023-03-02T00:13:04.495Z,6.22
2023-03-02T00:15:31.106Z,4.90
2023-03-02T00:17:57.723Z,5.13
2023-03-02T00:20:24.281Z,5.68
2023-03-02T00:22:51.100Z,4.63
2023-03-02T00:25:17.915Z,5.50
2023-03-02T00:27:45.126Z,5.20
2023-03-02T00:30:15.641Z,5.40
2023-03-02T00:32:42.180Z,4.68
2023-03-02T00:35:09.064Z,4.55
2023-03-02T00:37:36.904Z,4.90
2023-03-02T00:40:08.019Z,5.72
2023-03-02T00:42:34.890Z,4.65
2023-03-02T00:45:01.588Z,5.10
2023-03-02T00:47:29.262Z,4.88
2023-03-02T00:49:56.386Z,5.85
2023-03-02T00:52:23.265Z,5.88
2023-03-02T00:54:49.829Z,5.45
2023-03-02T00:57:16.383Z,5.47
2023-03-02T00:59:42.976Z,4.40
2023-03-02T01:02:09.620Z,5.05
2023-03-02T01:04:39.161Z,5.22
2023-03-02T01:07:11.842Z,5.10
2023-03-02T01:09:40.542Z,4.60
2023-03-02T01:12:08.159Z,5.05
2023-03-02T01:14:36.056Z,4.65
2023-03-02T01:17:03.554Z,5.53
2023-03-02T01:19:30.385Z,4.90
2023-03-02T01:21:56.931Z,5.00
2023-03-02T01:24:23.486Z,4.65
2023-03-02T01:26:50.085Z,4.75
2023-03-02T01:29:16.644Z,5.25
2023-03-02T01:31:43.258Z,4.30
2023-03-02T01:34:10.136Z,5.15
2023-03-02T01:36:36.779Z,5.28
2023-03-02T01:39:03.616Z,5.57
2023-03-02T01:41:30.810Z,4.47
2023-03-02T01:43:57.840Z,4.18
2023-03-02T01:46:32.329Z,5.25
2023-03-02T01:49:03.159Z,4.95
2023-03-02T01:51:34.470Z,4.63
2023-03-02T01:54:09.742Z,4.25
2023-03-02T01:56:40.535Z,5.50
2023-03-02T01:59:11.857Z,4.40
2023-03-02T02:01:41.467Z,4.45
2023-03-02T02:04:09.307Z,4.82
2023-03-02T02:06:42.291Z,4.95
2023-03-02T02:09:13.389Z,4.70
2023-03-02T02:11:39.998Z,4.90
2023-03-02T02:14:06.746Z,4.45
2023-03-02T02:16:34.953Z,5.13
2023-03-02T02:19:02.619Z,5.15
2023-03-02T02:21:29.371Z,4.85
2023-03-02T02:24:23.793Z,4.95
2023-03-02T02:26:52.908Z,4.32
2023-03-02T02:29:26.762Z,5.82
2023-03-02T02:32:12.127Z,5.15
2023-03-02T02:34:41.759Z,4.90
2023-03-02T02:37:15.256Z,4.68
2023-03-02T02:39:46.262Z,4.75
2023-03-02T02:42:20.611Z,5.18
2023-03-02T02:44:47.854Z,4.70
2023-03-02T02:47:21.880Z,5.10
2023-03-02T02:49:51.626Z,4.53
2023-03-02T02:52:20.459Z,4.50
2023-03-02T02:54:49.731Z,5.10
2023-03-02T02:57:18.257Z,4.30
2023-03-02T02:59:50.707Z,4.55
2023-03-02T03:02:20.900Z,5.30
2023-03-02T03:04:47.723Z,4.85
2023-03-02T03:07:22.703Z,4.97
2023-03-02T03:09:55.312Z,4.63
2023-03-02T03:12:24.888Z,4.95
2023-03-02T03:14:52.715Z,6.60
2023-03-02T03:17:19.214Z,4.72
2023-03-02T03:19:46.983Z,4.55
2023-03-02T03:22:15.841Z,5.57
2023-03-02T03:24:44.027Z,4.85
2023-03-02T03:27:13.817Z,4.20
2023-03-02T03:29:44.487Z,5.10
2023-03-02T03:32:11.122Z,4.80
2023-03-02T03:34:37.930Z,4.78
2023-03-02T03:37:04.471Z,5.05
2023-03-02T03:39:31.508Z,5.88
2023-03-02T03:41:58.175Z,4.70
2023-03-02T03:44:24.749Z,4.75
2023-03-02T03:46:51.433Z,5.15
2023-03-02T03:49:18.188Z,4.18
2023-03-02T03:51:44.770Z,4.45
2023-03-02T03:54:11.896Z,4.47
2023-03-02T03:56:44.376Z,4.32
2023-03-02T03:59:13.880Z,5.00
2023-03-02T04:01:52.435Z,5.47
2023-03-02T04:04:25.885Z,5.30
2023-03-02T04:06:53.322Z,4.82
2023-03-02T04:09:20.030Z,4.90
2023-03-02T04:11:51.652Z,4.57
2023-03-02T04:14:18.911Z,5.07
2023-03-02T04:16:45.739Z,5.65
2023-03-02T04:19:12.619Z,4.93
2023-03-02T04:21:42.615Z,4.47
2023-03-02T04:24:09.759Z,5.78
2023-03-02T04:26:37.826Z,5.38
2023-03-02T04:29:05.224Z,4.72
2023-03-02T04:31:31.944Z,5.18
2023-03-02T04:33:59.234Z,5.05
2023-03-02T04:36:26.309Z,5.10
2023-03-02T04:38:52.954Z,4.22
2023-03-02T04:41:19.590Z,4.93
2023-03-02T04:43:46.152Z,5.35
2023-03-02T04:46:19.508Z,4.43
2023-03-02T04:48:46.882Z,4.93
2023-03-02T04:51:28.956Z,4.78
2023-03-02T04:54:01.059Z,4.95
2023-03-02T04:56:28.143Z,5.45
2023-03-02T04:58:55.663Z,4.45
2023-03-02T05:01:22.342Z,4.00
2023-03-02T05:03:49.307Z,4.80
2023-03-02T05:06:16.393Z,4.88
2023-03-02T05:08:44.557Z,5.18
2023-03-02T05:11:13.983Z,5.05
2023-03-02T05:13:40.536Z,5.70
2023-03-02T05:16:07.313Z,4.80
2023-03-02T05:18:33.873Z,4.38
2023-03-02T05:21:00.439Z,4.72
2023-03-02T05:23:27.015Z,4.75
2023-03-02T05:25:55.390Z,5.22
2023-03-02T05:28:23.764Z,5.30
2023-03-02T05:30:51.266Z,4.50
2023-03-02T05:33:18.537Z,4.05
2023-03-02T05:35:45.528Z,5.05
2023-03-02T05:38:12.236Z,3.90
2023-03-02T05:40:39.634Z,4.80
2023-03-02T05:43:06.535Z,5.78
2023-03-02T05:45:36.349Z,5.25
2023-03-02T05:48:03.615Z,5.07
2023-03-02T05:50:30.206Z,5.00
2023-03-02T05:52:57.167Z,4.90
2023-03-02T05:55:23.900Z,5.15
2023-03-02T05:57:50.483Z,4.70
2023-03-02T06:00:18.220Z,4.82
2023-03-02T06:02:44.929Z,5.22
2023-03-02T06:05:14.593Z,4.18
2023-03-02T06:07:41.368Z,4.80
2023-03-02T06:10:10.170Z,5.00
2023-03-02T06:12:37.546Z,4.38
2023-03-02T06:15:05.839Z,4.22
2023-03-02T06:17:32.400Z,4.72
2023-03-02T06:19:58.955Z,5.57
2023-03-02T06:22:25.948Z,5.05
2023-03-02T06:24:52.561Z,4.20
2023-03-02T06:27:19.190Z,5.00
2023-03-02T06:29:45.737Z,6.25
2023-03-02T06:32:12.515Z,5.13
2023-03-02T06:34:39.596Z,4.50
2023-03-02T06:37:06.513Z,4.18
2023-03-02T06:39:33.130Z,4.97
2023-03-02T06:41:59.706Z,4.00
2023-03-02T06:44:26.358Z,5.55
2023-03-02T06:46:52.858Z,5.63
2023-03-02T06:49:19.392Z,5.57
2023-03-02T06:51:45.930Z,6.00
2023-03-02T06:54:12.483Z,5.60
2023-03-02T06:56:40.951Z,5.80
2023-03-02T06:59:07.886Z,4.78
2023-03-02T07:01:34.693Z,6.35
2023-03-02T07:04:02.286Z,4.60
2023-03-02T07:06:28.915Z,5.30
2023-03-02T07:08:55.482Z,5.03
2023-03-02T07:11:21.965Z,5.05
2023-03-02T07:13:48.487Z,4.53
2023-03-02T07:16:15.559Z,5.20
2023-03-02T07:18:42.258Z,5.40
2023-03-02T07:21:08.891Z,4.88
2023-03-02T07:23:35.718Z,4.53
2023-03-02T07:26:02.297Z,4.85
2023-03-02T07:28:28.806Z,5.10
2023-03-02T07:30:55.401Z,5.13
2023-03-02T07:33:21.961Z,5.40
2023-03-02T07:35:48.821Z,4.88
2023-03-02T07:38:15.395Z,4.50
2023-03-02T07:40:42.826Z,4.88
2023-03-02T07:46:16.530Z,4.90
2023-03-02T07:48:43.191Z,4.85
2023-03-02T07:51:09.757Z,4.90
2023-03-02T07:53:36.319Z,6.03
2023-03-02T07:56:07.372Z,5.80
2023-03-02T07:58:35.342Z,6.30
2023-03-02T08:01:01.965Z,5.85
2023-03-02T08:03:30.820Z,5.72
2023-03-02T08:05:57.347Z,6.38
2023-03-02T08:08:23.883Z,5.55
2023-03-02T08:10:50.400Z,5.82
2023-03-02T08:13:16.915Z,5.38
2023-03-02T08:15:43.477Z,5.30
2023-03-02T08:18:09.968Z,5.22
2023-03-02T08:20:37.892Z,5.93
2023-03-02T08:23:04.404Z,5.53
2023-03-02T08:25:30.931Z,5.78
2023-03-02T08:27:57.468Z,5.85
2023-03-02T08:30:24.044Z,5.63
2023-03-02T08:32:50.647Z,5.22
2023-03-02T08:35:17.256Z,5.40
2023-03-02T08:37:43.743Z,5.93
2023-03-02T08:40:10.903Z,5.25
2023-03-02T08:42:37.452Z,6.43
2023-03-02T08:45:04.392Z,6.43
2023-03-02T08:47:30.889Z,4.97
2023-03-02T08:49:57.411Z,5.82
2023-03-02T08:52:23.916Z,5.97
2023-03-02T08:54:50.502Z,5.88
2023-03-02T08:57:21.302Z,5.78
2023-03-02T08:59:47.946Z,6.03
2023-03-02T09:02:14.515Z,6.43
2023-03-02T09:04:41.853Z,6.63
2023-03-02T09:07:08.905Z,5.82
2023-03-02T09:09:35.450Z,6.47
2023-03-02T09:12:02.135Z,6.07
2023-03-02T09:14:28.694Z,6.07
2023-03-02T09:16:55.216Z,5.55
2023-03-02T09:19:21.820Z,6.57
2023-03-02T09:21:48.420Z,6.35
2023-03-02T09:24:15.136Z,6.80
2023-03-02T09:26:41.701Z,5.55
2023-03-02T09:29:08.720Z,6.22
2023-03-02T09:31:36.958Z,6.05
2023-03-02T09:34:04.190Z,5.60
2023-03-02T09:36:30.872Z,6.28
2023-03-02T09:38:57.489Z,6.30
2023-03-02T09:41:33.360Z,6.60
2023-03-02T09:44:06.118Z,6.53
2023-03-02T09:46:56.036Z,6.20
2023-03-02T09:49:47.560Z,5.63
2023-03-02T09:52:27.656Z,5.85
2023-03-02T09:54:54.966Z,6.70
2023-03-02T09:57:27.105Z,6.03
2023-03-02T10:00:18.073Z,6.88
2023-03-02T10:03:16.228Z,5.55
2023-03-02T10:05:54.763Z,6.38
2023-03-02T10:08:24.472Z,6.47
2023-03-02T10:11:33.974Z,6.28
2023-03-02T10:14:11.888Z,6.90
2023-03-02T10:16:46.630Z,6.03
2023-03-02T10:19:33.398Z,5.95
2023-03-02T10:22:21.453Z,6.00
2023-03-02T10:24:58.598Z,6.25
2023-03-02T10:27:35.197Z,6.65
2023-03-02T10:30:14.377Z,6.15
2023-03-02T10:32:48.390Z,6.20
2023-03-02T10:35:22.685Z,6.28
2023-03-02T10:37:55.339Z,6.15
2023-03-02T10:40:40.081Z,6.25
2023-03-02T10:43:20.377Z,6.30
2023-03-02T10:46:00.784Z,5.70
2023-03-02T10:48:27.756Z,6.80
2023-03-02T10:50:56.443Z,6.30
2023-03-02T10:53:23.390Z,5.90
2023-03-02T10:55:54.824Z,6.55
2023-03-02T10:58:33.229Z,6.20
2023-03-02T11:01:06.360Z,6.03
2023-03-02T11:03:33.804Z,7.03
2023-03-02T11:06:20.393Z,6.45
2023-03-02T11:08:57.382Z,5.95
2023-03-02T11:11:25.093Z,5.95
2023-03-02T11:13:52.895Z,6.45
2023-03-02T11:16:19.525Z,6.63
2023-03-02T11:18:52.356Z,6.88
2023-03-02T11:21:24.134Z,6.43
2023-03-02T11:24:10.325Z,6.15
2023-03-02T11:26:49.013Z,6.28
2023-03-02T11:29:22.756Z,6.13
2023-03-02T11:31:59.436Z,6.13
2023-03-02T11:34:32.052Z,6.32
2023-03-02T11:37:41.984Z,6.75
2023-03-02T11:40:31.735Z,6.00
2023-03-02T11:43:00.354Z,5.85
2023-03-02T11:45:34.804Z,5.95
2023-03-02T11:48:07.466Z,6.43
2023-03-02T11:50:41.144Z,5.82
2023-03-02T11:53:17.916Z,6.35
2023-03-02T11:55:49.074Z,6.38
2023-03-02T11:58:20.598Z,5.78
2023-03-02T12:00:48.747Z,6.45
2023-03-02T12:03:15.308Z,5.78
2023-03-02T12:06:26.040Z,5.93
2023-03-02T12:09:07.142Z,6.05
2023-03-02T12:11:45.000Z,5.70
2023-03-02T12:14:44.381Z,6.18
2023-03-02T12:17:32.891Z,5.90
2023-03-02T12:20:26.703Z,6.00
2023-03-02T12:22:53.987Z,5.68
2023-03-02T12:25:20.469Z,5.82
2023-03-02T12:27:50.529Z,6.40
2023-03-02T12:30:17.265Z,6.60
2023-03-02T12:32:46.929Z,7.25
2023-03-02T12:35:19.979Z,5.80
2023-03-02T12:37:46.471Z,6.10
2023-03-02T12:40:31.496Z,5.82
2023-03-02T12:43:16.698Z,5.88
2023-03-02T12:46:05.262Z,5.55
2023-03-02T12:49:08.749Z,5.72
2023-03-02T12:51:51.742Z,7.30
2023-03-02T12:54:27.196Z,6.38
2023-03-02T12:57:23.042Z,6.00
2023-03-02T12:59:59.183Z,5.60
2023-03-02T13:02:36.329Z,6.45
2023-03-02T13:05:04.755Z,5.97
2023-03-02T13:08:05.505Z,5.78
2023-03-02T13:10:39.553Z,5.50
2023-03-02T13:13:20.103Z,5.38
2023-03-02T13:15:52.624Z,5.78
2023-03-02T13:18:23.211Z,6.25
2023-03-02T13:20:50.668Z,5.65
2023-03-02T13:23:18.571Z,6.03
2023-03-02T13:26:40.515Z,5.22
2023-03-02T13:29:18.008Z,5.45
2023-03-02T13:31:44.780Z,5.47
2023-03-02T13:34:23.886Z,6.38
2023-03-02T13:36:51.109Z,6.10
2023-03-02T13:39:35.843Z,5.82
2023-03-02T13:42:03.842Z,5.82
2023-03-02T13:44:33.407Z,5.95
2023-03-02T13:47:00.879Z,5.78
2023-03-02T13:49:32.904Z,5.80
2023-03-02T13:52:21.599Z,5.97
2023-03-02T13:54:48.134Z,5.28
2023-03-02T13:57:31.130Z,7.10
2023-03-02T13:59:59.319Z,5.57
2023-03-02T14:02:30.004Z,8.52
2023-03-02T14:04:57.073Z,7.78
2023-03-02T14:07:23.789Z,8.77
2023-03-02T14:09:50.413Z,8.93
2023-03-02T14:12:30.147Z,5.53
2023-03-02T14:14:59.632Z,10.93
2023-03-02T14:17:26.547Z,11.65
2023-03-02T14:19:54.047Z,9.80
2023-03-02T14:22:25.364Z,9.63
2023-03-02T14:24:54.879Z,8.77
2023-03-02T14:27:27.006Z,8.95
2023-03-02T14:29:53.536Z,6.18
2023-03-02T14:32:20.114Z,5.65
2023-03-02T14:34:46.894Z,5.88
2023-03-02T14:37:16.495Z,5.45
2023-03-02T14:39:48.725Z,6.10
2023-03-02T14:42:17.891Z,5.72
2023-03-02T14:44:46.204Z,5.07
2023-03-02T14:47:13.656Z,4.72
2023-03-02T14:49:42.579Z,5.55
2023-03-02T14:52:20.039Z,5.80
2023-03-02T14:54:53.667Z,5.25
2023-03-02T14:57:23.640Z,4.72
2023-03-02T14:59:50.193Z,5.72
2023-03-02T15:02:25.132Z,5.63
2023-03-02T15:04:54.963Z,5.00
2023-03-02T15:07:23.122Z,5.05
2023-03-02T15:09:49.712Z,5.22
2023-03-02T15:12:16.252Z,5.07
2023-03-02T15:14:43.720Z,5.53
2023-03-02T15:17:10.530Z,5.53
2023-03-02T15:19:37.087Z,4.93
2023-03-02T15:22:04.171Z,5.43
2023-03-02T15:24:33.062Z,5.03
2023-03-02T15:27:00.014Z,5.68
2023-03-02T15:29:26.526Z,7.47
2023-03-02T15:31:53.242Z,6.30
2023-03-02T15:34:19.902Z,6.95
2023-03-02T15:36:46.455Z,5.90
2023-03-02T15:39:15.591Z,7.63
2023-03-02T15:41:42.285Z,7.72
2023-03-02T15:44:17.276Z,11.95
2023-03-02T15:46:43.843Z,12.63
2023-03-02T15:49:10.337Z,6.78
2023-03-02T15:51:36.797Z,6.88
2023-03-02T15:54:03.389Z,6.32
2023-03-02T15:56:38.851Z,10.60
2023-03-02T15:59:10.288Z,7.35
2023-03-02T16:01:36.889Z,8.45
2023-03-02T16:04:03.508Z,5.35
2023-03-02T16:06:30.387Z,5.25
2023-03-02T16:08:56.891Z,4.50
2023-03-02T16:11:23.525Z,4.55
2023-03-02T16:13:50.455Z,4.45
2023-03-02T16:16:17.181Z,5.20
2023-03-02T16:18:43.834Z,4.47
2023-03-02T16:21:13.458Z,4.80
2023-03-02T16:23:39.991Z,4.45
2023-03-02T16:26:08.692Z,4.35
2023-03-02T16:28:35.276Z,6.18
2023-03-02T16:31:14.093Z,5.32
2023-03-02T16:33:41.256Z,5.00
2023-03-02T16:36:09.155Z,5.22
2023-03-02T16:38:36.493Z,4.95
2023-03-02T16:41:05.048Z,5.40
2023-03-02T16:43:31.845Z,5.93
2023-03-02T16:45:59.890Z,5.30
2023-03-02T16:48:27.119Z,4.72
2023-03-02T16:50:57.608Z,4.75
2023-03-02T16:53:24.488Z,4.70
2023-03-02T16:55:51.047Z,4.20
2023-03-02T16:58:17.554Z,5.07
2023-03-02T17:00:44.132Z,5.07
2023-03-02T17:03:10.793Z,4.50
2023-03-02T17:05:37.344Z,4.85
2023-03-02T17:08:03.999Z,4.50
2023-03-02T17:10:30.734Z,4.60
2023-03-02T17:12:57.291Z,4.90
2023-03-02T17:15:23.847Z,3.85
2023-03-02T17:17:50.425Z,4.75
2023-03-02T17:20:17.074Z,5.25
2023-03-02T17:22:45.685Z,4.70
2023-03-02T17:25:12.736Z,4.85
2023-03-02T17:27:40.324Z,4.90
2023-03-02T17:30:07.584Z,5.68
2023-03-02T17:32:34.190Z,5.05
2023-03-02T17:35:00.762Z,5.47
2023-03-02T17:37:27.296Z,5.00
2023-03-02T17:39:53.808Z,4.88
2023-03-02T17:42:20.380Z,5.10
2023-03-02T17:44:46.999Z,4.75
2023-03-02T17:47:17.046Z,4.80
2023-03-02T17:52:10.775Z,4.85
2023-03-02T17:54:37.417Z,4.28
2023-03-02T17:57:04.048Z,5.03
2023-03-02T17:59:30.622Z,5.07
2023-03-02T18:01:57.315Z,5.15
2023-03-02T18:04:23.949Z,5.38
2023-03-02T18:06:52.422Z,5.32
2023-03-02T18:09:20.324Z,5.93
2023-03-02T18:11:46.888Z,5.68
2023-03-02T18:14:18.859Z,6.53
2023-03-02T18:16:45.921Z,7.38
2023-03-02T18:19:13.050Z,7.68
2023-03-02T18:21:40.215Z,8.50
2023-03-02T18:24:07.553Z,6.88
2023-03-02T18:26:34.263Z,7.10
2023-03-02T18:29:00.775Z,7.53
2023-03-02T18:31:27.282Z,7.85
2023-03-02T18:33:53.912Z,7.10
2023-03-02T18:36:20.456Z,8.23
2023-03-02T18:38:47.218Z,9.65
2023-03-02T18:41:14.178Z,6.10
2023-03-02T18:43:41.802Z,6.82
2023-03-02T18:46:18.919Z,7.07
2023-03-02T18:48:45.698Z,6.35
2023-03-02T18:51:12.183Z,6.38
2023-03-02T18:53:42.472Z,6.47
2023-03-02T18:56:09.556Z,6.88
2023-03-02T18:58:43.060Z,5.80
2023-03-02T19:01:10.319Z,6.05
2023-03-02T19:03:41.947Z,7.45
2023-03-02T19:06:08.608Z,7.10
2023-03-02T19:08:35.702Z,7.53
2023-03-02T19:11:05.754Z,6.80
2023-03-02T19:13:35.372Z,6.53
2023-03-02T19:16:02.642Z,5.45
2023-03-02T19:18:30.448Z,5.20
2023-03-02T19:20:57.043Z,8.55
2023-03-02T19:23:23.615Z,6.65
2023-03-02T19:25:51.040Z,6.00
2023-03-02T19:28:17.842Z,5.53
2023-03-02T19:30:44.654Z,6.63
2023-03-02T19:33:11.276Z,6.15
2023-03-02T19:35:38.860Z,5.55
2023-03-02T19:38:06.968Z,5.90
2023-03-02T19:40:33.716Z,6.45
2023-03-02T19:43:00.663Z,6.20
2023-03-02T19:45:30.334Z,6.82
2023-03-02T19:47:58.502Z,6.53
2023-03-02T19:50:26.533Z,6.57
2023-03-02T19:52:53.287Z,6.70
2023-03-02T19:55:20.045Z,7.30
2023-03-02T19:57:46.573Z,6.32
2023-03-02T20:00:15.472Z,7.80
2023-03-02T20:02:43.098Z,7.57
2023-03-02T20:05:10.530Z,7.22
2023-03-02T20:07:39.210Z,6.93
2023-03-02T20:10:09.528Z,8.35
2023-03-02T20:12:40.147Z,8.05
2023-03-02T20:15:07.285Z,9.02
2023-03-02T20:17:35.369Z,7.70
2023-03-02T20:20:02.215Z,8.48
2023-03-02T20:22:28.812Z,7.97
2023-03-02T20:24:58.514Z,8.43
2023-03-02T20:27:25.201Z,8.13
2023-03-02T20:30:03.502Z,9.18
2023-03-02T20:32:30.239Z,8.63
2023-03-02T20:34:56.980Z,8.90
2023-03-02T20:37:24.021Z,8.80
2023-03-02T20:39:50.645Z,9.68
2023-03-02T20:42:17.247Z,9.07
2023-03-02T20:44:44.155Z,8.40
2023-03-02T20:49:55.705Z,9.23
2023-03-02T20:52:23.208Z,8.57
2023-03-02T20:54:49.872Z,9.52
2023-03-02T20:57:19.085Z,8.95
2023-03-02T20:59:46.448Z,8.73
2023-03-02T21:02:15.418Z,8.40
2023-03-02T21:04:42.735Z,8.57
2023-03-02T21:07:10.136Z,7.80
2023-03-02T21:09:36.744Z,8.40
2023-03-02T21:12:04.747Z,9.38
2023-03-02T21:14:31.759Z,10.13
2023-03-02T21:16:59.125Z,9.88
2023-03-02T21:19:26.015Z,10.27
2023-03-02T21:21:52.864Z,10.05
2023-03-02T21:24:19.435Z,8.88
2023-03-02T21:26:47.304Z,9.30
2023-03-02T21:29:15.585Z,10.30
2023-03-02T21:31:42.671Z,9.55
2023-03-02T21:34:10.642Z,8.82
2023-03-02T21:36:37.548Z,9.77
2023-03-02T21:39:05.894Z,8.40
2023-03-02T21:41:33.156Z,7.22
2023-03-02T21:43:59.727Z,9.00
2023-03-02T21:46:26.311Z,9.45
2023-03-02T21:48:53.379Z,9.55
2023-03-02T21:51:20.027Z,8.85
2023-03-02T21:53:46.794Z,7.88
2023-03-02T21:56:18.635Z,9.65
2023-03-02T21:58:45.162Z,9.55
2023-03-02T22:01:13.453Z,9.93
2023-03-02T22:03:44.517Z,10.30
2023-03-02T22:06:24.233Z,10.38
2023-03-02T22:08:51.170Z,10.13
2023-03-02T22:11:24.056Z,10.18
2023-03-02T22:13:52.283Z,11.05
2023-03-02T22:16:21.188Z,10.98
2023-03-02T22:18:52.636Z,10.95
2023-03-02T22:21:28.260Z,11.32
2023-03-02T22:24:18.292Z,10.77
2023-03-02T22:27:06.102Z,10.60
2023-03-02T22:29:42.393Z,9.90
2023-03-02T22:35:18.122Z,8.63
2023-03-02T22:37:44.614Z,9.93
2023-03-02T22:40:29.480Z,10.70
2023-03-02T22:43:12.324Z,9.82
2023-03-02T22:45:40.497Z,11.63
2023-03-02T22:48:17.354Z,10.60
2023-03-02T22:50:47.728Z,10.07
2023-03-02T22:55:57.413Z,8.95
2023-03-02T22:58:28.986Z,9.07
2023-03-02T23:00:57.133Z,8.13
2023-03-02T23:03:35.859Z,9.88
2023-03-02T23:06:02.484Z,10.07
2023-03-02T23:08:30.403Z,9.68
2023-03-02T23:10:58.549Z,9.43
2023-03-02T23:13:36.122Z,9.48
2023-03-02T23:16:16.700Z,10.70
2023-03-02T23:18:43.576Z,8.10
2023-03-02T23:21:22.521Z,9.80
2023-03-02T23:23:50.188Z,9.27
2023-03-02T23:26:17.196Z,9.98
2023-03-02T23:28:43.787Z,9.13
2023-03-02T23:31:10.328Z,11.07
2023-03-02T23:33:36.848Z,9.95
2023-03-02T23:36:03.484Z,9.02
2023-03-02T23:38:30.012Z,10.07
2023-03-02T23:40:56.515Z,9.32
2023-03-02T23:43:23.132Z,10.15
2023-03-02T23:45:50.184Z,10.13
2023-03-02T23:48:17.070Z,11.02
2023-03-02T23:50:44.541Z,12.13
2023-03-02T23:53:11.259Z,11.25
2023-03-02T23:55:40.934Z,10.50
2023-03-02T23:58:07.487Z,11.50
